sensor_id;sensor_type;location;lat;lon;timestamp;pressure;altitude;pressure_sealevel;temperature;humidity
63535;BME280;55128;50.230;18.944;2022-12-08T00:03:43;97918.00;;;3.13;71.88
63535;BME280;55128;50.230;18.944;2022-12-08T00:08:43;97922.47;;;3.09;71.99
63535;BME280;55128;50.230;18.944;2022-12-08T00:14:02;97918.50;;;2.94;72.87
63535;BME280;55128;50.230;18.944;2022-12-08T00:19:02;97929.75;;;2.99;72.30
63535;BME280;55128;50.230;18.944;2022-12-08T00:24:03;97928.69;;;3.06;72.82
63535;BME280;55128;50.230;18.944;2022-12-08T00:29:04;97929.47;;;3.10;72.32
63535;BME280;55128;50.230;18.944;2022-12-08T00:34:05;97931.91;;;3.16;71.84
63535;BME280;55128;50.230;18.944;2022-12-08T00:39:05;97940.56;;;3.20;72.33
63535;BME280;55128;50.230;18.944;2022-12-08T00:44:07;97939.75;;;3.18;72.10
63535;BME280;55128;50.230;18.944;2022-12-08T00:49:07;97937.00;;;3.21;72.63
63535;BME280;55128;50.230;18.944;2022-12-08T00:54:08;97939.78;;;3.16;72.18
63535;BME280;55128;50.230;18.944;2022-12-08T00:59:08;97954.47;;;3.22;72.38
63535;BME280;55128;50.230;18.944;2022-12-08T01:04:13;97957.16;;;3.19;72.38
63535;BME280;55128;50.230;18.944;2022-12-08T01:09:17;97962.38;;;3.20;72.65
63535;BME280;55128;50.230;18.944;2022-12-08T01:14:18;97965.22;;;3.13;72.83
63535;BME280;55128;50.230;18.944;2022-12-08T01:19:18;97973.66;;;3.24;72.09
63535;BME280;55128;50.230;18.944;2022-12-08T01:24:19;97967.81;;;3.14;72.81
63535;BME280;55128;50.230;18.944;2022-12-08T01:29:20;97964.97;;;3.22;72.72
63535;BME280;55128;50.230;18.944;2022-12-08T01:34:20;97959.72;;;3.22;72.47
63535;BME280;55128;50.230;18.944;2022-12-08T01:39:20;97957.09;;;3.22;72.22
63535;BME280;55128;50.230;18.944;2022-12-08T01:49:25;97953.97;;;3.07;72.61
63535;BME280;55128;50.230;18.944;2022-12-08T01:54:30;97960.03;;;3.09;72.73
63535;BME280;55128;50.230;18.944;2022-12-08T01:59:36;97957.22;;;3.17;72.31
63535;BME280;55128;50.230;18.944;2022-12-08T02:04:38;97951.13;;;3.17;72.26
63535;BME280;55128;50.230;18.944;2022-12-08T02:09:39;97960.69;;;3.19;72.17
63535;BME280;55128;50.230;18.944;2022-12-08T02:14:40;97954.66;;;3.16;72.14
63535;BME280;55128;50.230;18.944;2022-12-08T02:20:22;97951.53;;;3.01;72.45
63535;BME280;55128;50.230;18.944;2022-12-08T02:25:26;97952.63;;;2.92;72.55
63535;BME280;55128;50.230;18.944;2022-12-08T02:30:53;97953.94;;;3.09;72.69
63535;BME280;55128;50.230;18.944;2022-12-08T02:41:17;97952.13;;;2.78;73.11
63535;BME280;55128;50.230;18.944;2022-12-08T02:46:23;97950.94;;;2.90;72.70
63535;BME280;55128;50.230;18.944;2022-12-08T02:51:26;97941.44;;;2.86;72.72
63535;BME280;55128;50.230;18.944;2022-12-08T02:57:04;97948.81;;;2.71;73.60
63535;BME280;55128;50.230;18.944;2022-12-08T03:07:24;97944.19;;;2.81;73.19
63535;BME280;55128;50.230;18.944;2022-12-08T03:12:31;97945.16;;;2.77;73.39
63535;BME280;55128;50.230;18.944;2022-12-08T03:17:35;97942.44;;;2.82;73.05
63535;BME280;55128;50.230;18.944;2022-12-08T03:22:40;97946.66;;;2.87;72.68
63535;BME280;55128;50.230;18.944;2022-12-08T03:27:41;97943.97;;;2.89;73.31
63535;BME280;55128;50.230;18.944;2022-12-08T03:32:55;97943.81;;;2.97;72.71
63535;BME280;55128;50.230;18.944;2022-12-08T03:38:10;97948.69;;;3.09;72.61
63535;BME280;55128;50.230;18.944;2022-12-08T03:43:10;97938.03;;;3.15;72.17
63535;BME280;55128;50.230;18.944;2022-12-08T03:48:11;97940.09;;;3.04;72.67
63535;BME280;55128;50.230;18.944;2022-12-08T03:53:11;97936.53;;;3.06;71.97
63535;BME280;55128;50.230;18.944;2022-12-08T03:58:11;97940.81;;;3.10;72.40
63535;BME280;55128;50.230;18.944;2022-12-08T04:03:12;97940.06;;;3.05;71.86
63535;BME280;55128;50.230;18.944;2022-12-08T04:08:12;97943.06;;;2.91;72.64
63535;BME280;55128;50.230;18.944;2022-12-08T04:13:12;97940.22;;;2.99;72.40
63535;BME280;55128;50.230;18.944;2022-12-08T04:18:13;97933.47;;;2.90;72.65
63535;BME280;55128;50.230;18.944;2022-12-08T04:23:13;97935.06;;;2.96;72.16
63535;BME280;55128;50.230;18.944;2022-12-08T04:28:14;97940.63;;;2.84;72.22
63535;BME280;55128;50.230;18.944;2022-12-08T04:33:14;97930.19;;;2.82;72.54
63535;BME280;55128;50.230;18.944;2022-12-08T04:38:15;97931.97;;;2.82;72.57
63535;BME280;55128;50.230;18.944;2022-12-08T04:43:16;97923.28;;;2.80;72.50
63535;BME280;55128;50.230;18.944;2022-12-08T04:48:16;97930.03;;;2.88;72.52
63535;BME280;55128;50.230;18.944;2022-12-08T04:53:16;97922.94;;;2.92;72.33
63535;BME280;55128;50.230;18.944;2022-12-08T04:58:18;97916.03;;;2.89;72.16
63535;BME280;55128;50.230;18.944;2022-12-08T05:03:19;97922.06;;;2.93;71.99
63535;BME280;55128;50.230;18.944;2022-12-08T05:08:19;97926.38;;;2.94;72.38
63535;BME280;55128;50.230;18.944;2022-12-08T05:13:20;97921.22;;;2.91;72.51
63535;BME280;55128;50.230;18.944;2022-12-08T05:18:20;97928.09;;;2.95;72.34
63535;BME280;55128;50.230;18.944;2022-12-08T05:23:20;97916.47;;;3.05;71.59
63535;BME280;55128;50.230;18.944;2022-12-08T05:28:21;97922.41;;;3.12;72.03
63535;BME280;55128;50.230;18.944;2022-12-08T05:33:21;97920.09;;;3.00;72.26
63535;BME280;55128;50.230;18.944;2022-12-08T05:38:22;97923.50;;;3.03;71.96
63535;BME280;55128;50.230;18.944;2022-12-08T05:43:22;97929.47;;;3.10;71.66
63535;BME280;55128;50.230;18.944;2022-12-08T05:48:22;97927.31;;;2.91;72.03
63535;BME280;55128;50.230;18.944;2022-12-08T05:53:23;97926.72;;;2.82;71.92
63535;BME280;55128;50.230;18.944;2022-12-08T05:58:23;97929.47;;;2.76;72.55
63535;BME280;55128;50.230;18.944;2022-12-08T06:03:24;97923.59;;;2.67;72.61
63535;BME280;55128;50.230;18.944;2022-12-08T06:08:24;97920.22;;;2.62;72.54
63535;BME280;55128;50.230;18.944;2022-12-08T06:13:24;97919.47;;;2.57;73.01
63535;BME280;55128;50.230;18.944;2022-12-08T06:18:25;97925.41;;;2.64;73.07
63535;BME280;55128;50.230;18.944;2022-12-08T06:23:26;97936.44;;;2.77;72.47
63535;BME280;55128;50.230;18.944;2022-12-08T06:28:27;97943.78;;;2.62;72.59
63535;BME280;55128;50.230;18.944;2022-12-08T06:33:27;97944.03;;;2.53;73.09
63535;BME280;55128;50.230;18.944;2022-12-08T06:38:28;97949.38;;;2.48;73.38
63535;BME280;55128;50.230;18.944;2022-12-08T06:43:29;97966.97;;;2.43;72.86
63535;BME280;55128;50.230;18.944;2022-12-08T06:48:29;97970.88;;;2.63;72.92
63535;BME280;55128;50.230;18.944;2022-12-08T06:53:30;97970.34;;;2.48;73.04
63535;BME280;55128;50.230;18.944;2022-12-08T06:58:30;97973.34;;;2.69;72.41
63535;BME280;55128;50.230;18.944;2022-12-08T07:03:30;97975.78;;;2.75;72.15
63535;BME280;55128;50.230;18.944;2022-12-08T07:08:32;97975.38;;;2.92;71.51
63535;BME280;55128;50.230;18.944;2022-12-08T07:13:33;97972.25;;;3.10;70.85
63535;BME280;55128;50.230;18.944;2022-12-08T07:18:33;97977.75;;;3.34;71.27
63535;BME280;55128;50.230;18.944;2022-12-08T07:23:34;97975.56;;;3.50;69.88
63535;BME280;55128;50.230;18.944;2022-12-08T07:28:36;97973.06;;;3.45;69.29
63535;BME280;55128;50.230;18.944;2022-12-08T07:33:36;97966.50;;;3.60;68.46
63535;BME280;55128;50.230;18.944;2022-12-08T07:38:37;97970.88;;;3.91;68.73
63535;BME280;55128;50.230;18.944;2022-12-08T07:43:37;97972.25;;;4.03;68.00
63535;BME280;55128;50.230;18.944;2022-12-08T07:48:37;97970.50;;;4.32;66.87
63535;BME280;55128;50.230;18.944;2022-12-08T07:53:39;97975.75;;;4.32;66.97
63535;BME280;55128;50.230;18.944;2022-12-08T07:58:40;97978.53;;;4.27;66.98
63535;BME280;55128;50.230;18.944;2022-12-08T08:03:40;97969.06;;;4.50;66.24
63535;BME280;55128;50.230;18.944;2022-12-08T08:08:41;97972.03;;;4.11;65.77
63535;BME280;55128;50.230;18.944;2022-12-08T08:13:41;97974.25;;;4.24;66.44
63535;BME280;55128;50.230;18.944;2022-12-08T08:18:42;97967.84;;;4.33;65.91
63535;BME280;55128;50.230;18.944;2022-12-08T08:23:42;97966.72;;;4.40;65.60
63535;BME280;55128;50.230;18.944;2022-12-08T08:28:43;97969.91;;;4.50;65.36
63535;BME280;55128;50.230;18.944;2022-12-08T08:33:44;97957.72;;;4.49;65.85
63535;BME280;55128;50.230;18.944;2022-12-08T08:38:47;97964.19;;;4.65;65.37
63535;BME280;55128;50.230;18.944;2022-12-08T08:43:48;97960.47;;;4.44;65.24
63535;BME280;55128;50.230;18.944;2022-12-08T08:48:48;97964.38;;;5.36;64.44
63535;BME280;55128;50.230;18.944;2022-12-08T08:53:48;97965.44;;;7.92;59.11
63535;BME280;55128;50.230;18.944;2022-12-08T08:58:50;97965.91;;;9.11;55.82
63535;BME280;55128;50.230;18.944;2022-12-08T09:03:52;97961.78;;;9.41;52.66
63535;BME280;55128;50.230;18.944;2022-12-08T09:08:53;97964.13;;;9.29;52.58
63535;BME280;55128;50.230;18.944;2022-12-08T09:13:53;97960.88;;;8.34;52.49
63535;BME280;55128;50.230;18.944;2022-12-08T09:18:54;97956.03;;;7.87;53.80
63535;BME280;55128;50.230;18.944;2022-12-08T09:23:57;97957.28;;;7.38;55.05
63535;BME280;55128;50.230;18.944;2022-12-08T09:28:58;97953.97;;;6.92;56.02
63535;BME280;55128;50.230;18.944;2022-12-08T09:33:59;97934.91;;;6.21;58.26
63535;BME280;55128;50.230;18.944;2022-12-08T09:38:59;97936.44;;;6.27;58.51
63535;BME280;55128;50.230;18.944;2022-12-08T09:49:41;97918.88;;;5.80;60.15
63535;BME280;55128;50.230;18.944;2022-12-08T09:54:46;97917.94;;;5.82;59.61
63535;BME280;55128;50.230;18.944;2022-12-08T09:59:51;97915.38;;;6.05;59.12
63535;BME280;55128;50.230;18.944;2022-12-08T10:04:55;97930.44;;;6.45;58.68
63535;BME280;55128;50.230;18.944;2022-12-08T10:15:09;97917.44;;;5.95;59.35
63535;BME280;55128;50.230;18.944;2022-12-08T10:20:23;97913.03;;;5.73;59.70
63535;BME280;55128;50.230;18.944;2022-12-08T10:25:32;97901.28;;;5.35;59.87
63535;BME280;55128;50.230;18.944;2022-12-08T10:30:34;97903.91;;;5.58;58.79
63535;BME280;55128;50.230;18.944;2022-12-08T10:36:03;97898.84;;;5.54;59.60
63535;BME280;55128;50.230;18.944;2022-12-08T10:46:18;97887.91;;;5.41;59.87
63535;BME280;55128;50.230;18.944;2022-12-08T10:51:28;97899.84;;;5.50;59.90
63535;BME280;55128;50.230;18.944;2022-12-08T10:56:29;97888.56;;;5.46;59.10
63535;BME280;55128;50.230;18.944;2022-12-08T11:01:38;97888.38;;;5.52;60.35
63535;BME280;55128;50.230;18.944;2022-12-08T11:06:39;97888.53;;;5.48;60.38
63535;BME280;55128;50.230;18.944;2022-12-08T11:11:51;97892.53;;;5.58;59.92
63535;BME280;55128;50.230;18.944;2022-12-08T11:16:55;97886.41;;;5.57;60.28
63535;BME280;55128;50.230;18.944;2022-12-08T11:22:00;97891.56;;;5.60;59.61
63535;BME280;55128;50.230;18.944;2022-12-08T11:27:04;97885.38;;;5.38;60.53
63535;BME280;55128;50.230;18.944;2022-12-08T11:32:11;97883.72;;;5.59;61.16
63535;BME280;55128;50.230;18.944;2022-12-08T11:37:17;97881.75;;;5.64;62.16
63535;BME280;55128;50.230;18.944;2022-12-08T11:42:25;97876.94;;;5.52;60.59
63535;BME280;55128;50.230;18.944;2022-12-08T11:47:37;97879.22;;;5.84;61.10
63535;BME280;55128;50.230;18.944;2022-12-08T11:52:49;97880.69;;;5.70;61.63
63535;BME280;55128;50.230;18.944;2022-12-08T11:57:50;97885.53;;;5.57;62.48
63535;BME280;55128;50.230;18.944;2022-12-08T12:03:00;97883.69;;;5.12;63.55
63535;BME280;55128;50.230;18.944;2022-12-08T12:13:44;97879.63;;;4.78;65.84
63535;BME280;55128;50.230;18.944;2022-12-08T12:18:56;97880.13;;;4.64;66.73
63535;BME280;55128;50.230;18.944;2022-12-08T12:24:05;97875.81;;;4.61;66.78
63535;BME280;55128;50.230;18.944;2022-12-08T12:29:15;97873.63;;;4.49;67.73
63535;BME280;55128;50.230;18.944;2022-12-08T12:34:17;97866.53;;;4.51;68.65
63535;BME280;55128;50.230;18.944;2022-12-08T12:39:24;97865.41;;;4.58;68.36
63535;BME280;55128;50.230;18.944;2022-12-08T12:54:41;97865.28;;;4.09;70.80
63535;BME280;55128;50.230;18.944;2022-12-08T13:04:56;97865.06;;;3.89;71.92
63535;BME280;55128;50.230;18.944;2022-12-08T13:15:19;97861.63;;;4.14;71.95
63535;BME280;55128;50.230;18.944;2022-12-08T13:20:22;97849.16;;;4.20;71.41
63535;BME280;55128;50.230;18.944;2022-12-08T13:35:49;97847.84;;;4.07;72.59
63535;BME280;55128;50.230;18.944;2022-12-08T13:40:51;97849.34;;;4.14;72.34
63535;BME280;55128;50.230;18.944;2022-12-08T13:45:54;97849.31;;;4.16;72.84
63535;BME280;55128;50.230;18.944;2022-12-08T13:51:15;97847.19;;;4.27;72.55
63535;BME280;55128;50.230;18.944;2022-12-08T13:56:17;97857.53;;;4.32;72.23
63535;BME280;55128;50.230;18.944;2022-12-08T14:01:19;97858.97;;;4.42;72.43
63535;BME280;55128;50.230;18.944;2022-12-08T14:06:35;97854.59;;;4.41;72.20
63535;BME280;55128;50.230;18.944;2022-12-08T14:11:42;97856.63;;;4.33;72.28
63535;BME280;55128;50.230;18.944;2022-12-08T14:16:53;97852.19;;;4.35;72.59
63535;BME280;55128;50.230;18.944;2022-12-08T14:22:04;97857.34;;;4.38;72.52
63535;BME280;55128;50.230;18.944;2022-12-08T14:27:14;97850.38;;;4.37;72.37
63535;BME280;55128;50.230;18.944;2022-12-08T14:32:21;97848.59;;;4.37;72.14
63535;BME280;55128;50.230;18.944;2022-12-08T14:37:24;97849.78;;;4.28;71.99
63535;BME280;55128;50.230;18.944;2022-12-08T14:42:26;97853.34;;;4.26;72.58
63535;BME280;55128;50.230;18.944;2022-12-08T14:47:32;97861.72;;;4.11;73.42
63535;BME280;55128;50.230;18.944;2022-12-08T14:52:33;97867.50;;;4.22;73.15
63535;BME280;55128;50.230;18.944;2022-12-08T14:57:33;97863.16;;;4.21;72.45
63535;BME280;55128;50.230;18.944;2022-12-08T15:02:43;97852.06;;;3.84;74.15
63535;BME280;55128;50.230;18.944;2022-12-08T15:07:48;97850.97;;;3.92;74.10
63535;BME280;55128;50.230;18.944;2022-12-08T15:18:01;97849.91;;;3.69;75.04
63535;BME280;55128;50.230;18.944;2022-12-08T15:23:04;97847.53;;;3.61;75.56
63535;BME280;55128;50.230;18.944;2022-12-08T15:28:04;97849.59;;;3.80;75.17
63535;BME280;55128;50.230;18.944;2022-12-08T15:33:04;97851.19;;;3.84;74.68
63535;BME280;55128;50.230;18.944;2022-12-08T15:38:06;97844.13;;;3.58;76.05
63535;BME280;55128;50.230;18.944;2022-12-08T15:43:09;97844.09;;;3.59;75.48
63535;BME280;55128;50.230;18.944;2022-12-08T15:48:24;97846.84;;;3.55;76.06
63535;BME280;55128;50.230;18.944;2022-12-08T15:53:26;97838.31;;;3.48;76.33
63535;BME280;55128;50.230;18.944;2022-12-08T15:58:26;97834.72;;;3.50;76.36
63535;BME280;55128;50.230;18.944;2022-12-08T16:03:28;97821.59;;;3.50;76.62
63535;BME280;55128;50.230;18.944;2022-12-08T16:08:29;97829.47;;;3.50;76.28
63535;BME280;55128;50.230;18.944;2022-12-08T16:13:29;97828.56;;;3.53;76.33
63535;BME280;55128;50.230;18.944;2022-12-08T16:18:49;97819.09;;;3.47;76.50
63535;BME280;55128;50.230;18.944;2022-12-08T16:23:50;97817.94;;;3.56;76.68
63535;BME280;55128;50.230;18.944;2022-12-08T16:28:50;97811.84;;;3.56;76.29
63535;BME280;55128;50.230;18.944;2022-12-08T16:33:50;97816.84;;;3.63;75.90
63535;BME280;55128;50.230;18.944;2022-12-08T16:38:51;97817.09;;;3.56;75.88
63535;BME280;55128;50.230;18.944;2022-12-08T16:43:51;97814.47;;;3.56;75.76
63535;BME280;55128;50.230;18.944;2022-12-08T16:48:52;97821.38;;;3.58;75.86
63535;BME280;55128;50.230;18.944;2022-12-08T16:53:53;97813.13;;;3.70;75.61
63535;BME280;55128;50.230;18.944;2022-12-08T16:58:54;97816.09;;;3.60;75.72
63535;BME280;55128;50.230;18.944;2022-12-08T17:03:54;97810.75;;;3.63;75.91
63535;BME280;55128;50.230;18.944;2022-12-08T17:08:54;97803.38;;;3.47;77.22
63535;BME280;55128;50.230;18.944;2022-12-08T17:13:55;97805.53;;;3.61;76.72
63535;BME280;55128;50.230;18.944;2022-12-08T17:18:56;97805.91;;;3.49;76.71
63535;BME280;55128;50.230;18.944;2022-12-08T17:23:57;97806.06;;;3.44;77.21
63535;BME280;55128;50.230;18.944;2022-12-08T17:28:57;97812.03;;;3.49;77.12
63535;BME280;55128;50.230;18.944;2022-12-08T17:34:03;97810.41;;;3.45;77.11
63535;BME280;55128;50.230;18.944;2022-12-08T17:39:05;97800.81;;;3.44;76.89
63535;BME280;55128;50.230;18.944;2022-12-08T17:44:11;97805.75;;;3.55;76.42
63535;BME280;55128;50.230;18.944;2022-12-08T17:49:17;97811.81;;;3.57;76.62
63535;BME280;55128;50.230;18.944;2022-12-08T17:54:18;97811.47;;;3.68;76.00
63535;BME280;55128;50.230;18.944;2022-12-08T17:59:19;97810.09;;;3.83;75.98
63535;BME280;55128;50.230;18.944;2022-12-08T18:04:20;97801.56;;;3.76;75.62
63535;BME280;55128;50.230;18.944;2022-12-08T18:09:20;97797.50;;;3.66;76.08
63535;BME280;55128;50.230;18.944;2022-12-08T18:14:20;97791.91;;;3.50;76.20
63535;BME280;55128;50.230;18.944;2022-12-08T18:19:21;97786.28;;;3.34;76.77
63535;BME280;55128;50.230;18.944;2022-12-08T18:24:22;97782.13;;;3.55;76.57
63535;BME280;55128;50.230;18.944;2022-12-08T18:29:23;97778.25;;;3.39;76.61
63535;BME280;55128;50.230;18.944;2022-12-08T18:34:23;97784.28;;;3.42;76.86
63535;BME280;55128;50.230;18.944;2022-12-08T18:39:27;97772.66;;;3.51;76.79
63535;BME280;55128;50.230;18.944;2022-12-08T18:44:28;97771.25;;;3.66;76.18
63535;BME280;55128;50.230;18.944;2022-12-08T18:49:29;97765.59;;;3.80;75.75
63535;BME280;55128;50.230;18.944;2022-12-08T18:54:29;97762.16;;;3.78;76.20
63535;BME280;55128;50.230;18.944;2022-12-08T18:59:30;97770.25;;;3.98;75.51
63535;BME280;55128;50.230;18.944;2022-12-08T19:04:30;97769.53;;;3.93;76.22
63535;BME280;55128;50.230;18.944;2022-12-08T19:09:31;97771.84;;;4.02;76.09
63535;BME280;55128;50.230;18.944;2022-12-08T19:14:32;97778.13;;;3.98;76.19
63535;BME280;55128;50.230;18.944;2022-12-08T19:19:34;97778.00;;;4.01;75.90
63535;BME280;55128;50.230;18.944;2022-12-08T19:24:34;97781.50;;;4.02;76.10
63535;BME280;55128;50.230;18.944;2022-12-08T19:29:35;97784.53;;;3.89;76.27
63535;BME280;55128;50.230;18.944;2022-12-08T19:34:36;97780.75;;;3.98;76.01
63535;BME280;55128;50.230;18.944;2022-12-08T19:39:36;97782.66;;;3.93;76.02
63535;BME280;55128;50.230;18.944;2022-12-08T19:44:58;97785.22;;;3.95;76.35
63535;BME280;55128;50.230;18.944;2022-12-08T19:49:59;97781.81;;;3.93;76.27
63535;BME280;55128;50.230;18.944;2022-12-08T19:55:18;97775.94;;;3.84;76.50
63535;BME280;55128;50.230;18.944;2022-12-08T20:00:19;97776.44;;;3.69;77.24
63535;BME280;55128;50.230;18.944;2022-12-08T20:05:20;97765.69;;;3.77;76.95
63535;BME280;55128;50.230;18.944;2022-12-08T20:10:33;97772.63;;;3.79;76.61
63535;BME280;55128;50.230;18.944;2022-12-08T20:15:34;97771.78;;;3.77;77.01
63535;BME280;55128;50.230;18.944;2022-12-08T20:20:34;97767.25;;;3.82;76.47
63535;BME280;55128;50.230;18.944;2022-12-08T20:25:40;97768.06;;;3.84;76.49
63535;BME280;55128;50.230;18.944;2022-12-08T20:30:42;97760.19;;;3.84;76.17
63535;BME280;55128;50.230;18.944;2022-12-08T20:35:44;97768.75;;;3.89;76.42
63535;BME280;55128;50.230;18.944;2022-12-08T20:40:45;97770.28;;;3.97;76.20
63535;BME280;55128;50.230;18.944;2022-12-08T20:45:46;97776.44;;;3.96;76.24
63535;BME280;55128;50.230;18.944;2022-12-08T20:50:51;97772.97;;;3.95;75.70
63535;BME280;55128;50.230;18.944;2022-12-08T20:55:52;97776.28;;;4.00;75.80
63535;BME280;55128;50.230;18.944;2022-12-08T21:00:52;97775.53;;;3.97;75.95
63535;BME280;55128;50.230;18.944;2022-12-08T21:05:53;97771.38;;;3.89;76.32
63535;BME280;55128;50.230;18.944;2022-12-08T21:10:54;97770.88;;;3.78;76.55
63535;BME280;55128;50.230;18.944;2022-12-08T21:15:55;97766.31;;;3.85;76.23
63535;BME280;55128;50.230;18.944;2022-12-08T21:21:03;97768.94;;;3.85;76.65
63535;BME280;55128;50.230;18.944;2022-12-08T21:26:12;97768.00;;;3.86;76.46
63535;BME280;55128;50.230;18.944;2022-12-08T21:31:15;97774.78;;;3.93;76.10
63535;BME280;55128;50.230;18.944;2022-12-08T21:36:19;97773.16;;;3.89;76.48
63535;BME280;55128;50.230;18.944;2022-12-08T21:41:21;97771.91;;;3.74;76.77
63535;BME280;55128;50.230;18.944;2022-12-08T21:46:41;97770.59;;;3.61;77.45
63535;BME280;55128;50.230;18.944;2022-12-08T21:51:41;97765.28;;;3.62;77.38
63535;BME280;55128;50.230;18.944;2022-12-08T21:56:47;97764.66;;;3.81;77.07
63535;BME280;55128;50.230;18.944;2022-12-08T22:01:47;97760.22;;;3.83;76.83
63535;BME280;55128;50.230;18.944;2022-12-08T22:06:48;97750.13;;;3.70;76.88
63535;BME280;55128;50.230;18.944;2022-12-08T22:11:48;97752.00;;;3.67;77.33
63535;BME280;55128;50.230;18.944;2022-12-08T22:16:49;97757.00;;;3.48;77.55
63535;BME280;55128;50.230;18.944;2022-12-08T22:21:49;97763.41;;;3.66;77.13
63535;BME280;55128;50.230;18.944;2022-12-08T22:26:50;97745.94;;;3.65;77.47
63535;BME280;55128;50.230;18.944;2022-12-08T22:31:50;97756.16;;;3.74;76.89
63535;BME280;55128;50.230;18.944;2022-12-08T22:36:50;97742.91;;;3.77;75.90
63535;BME280;55128;50.230;18.944;2022-12-08T22:41:51;97752.50;;;3.78;76.23
63535;BME280;55128;50.230;18.944;2022-12-08T22:46:51;97750.66;;;3.82;76.85
63535;BME280;55128;50.230;18.944;2022-12-08T22:51:51;97748.06;;;3.80;76.60
63535;BME280;55128;50.230;18.944;2022-12-08T22:56:52;97750.75;;;3.79;76.42
63535;BME280;55128;50.230;18.944;2022-12-08T23:01:52;97752.38;;;3.55;77.07
63535;BME280;55128;50.230;18.944;2022-12-08T23:06:53;97751.94;;;3.42;76.97
63535;BME280;55128;50.230;18.944;2022-12-08T23:11:53;97748.56;;;3.38;77.24
63535;BME280;55128;50.230;18.944;2022-12-08T23:16:54;97733.09;;;3.29;77.43
63535;BME280;55128;50.230;18.944;2022-12-08T23:21:54;97729.63;;;3.28;77.63
63535;BME280;55128;50.230;18.944;2022-12-08T23:26:54;97728.13;;;3.20;76.51
63535;BME280;55128;50.230;18.944;2022-12-08T23:31:55;97716.66;;;3.24;77.21
63535;BME280;55128;50.230;18.944;2022-12-08T23:36:55;97717.38;;;3.29;77.27
63535;BME280;55128;50.230;18.944;2022-12-08T23:41:55;97718.00;;;3.36;77.21
63535;BME280;55128;50.230;18.944;2022-12-08T23:46:56;97725.78;;;3.39;76.88
63535;BME280;55128;50.230;18.944;2022-12-08T23:51:56;97716.78;;;3.47;76.87
63535;BME280;55128;50.230;18.944;2022-12-08T23:56:56;97715.72;;;3.53;76.91
